CW2798 Aduanas ES current weather conditions

sailwx.info

Wind from 130 at 4 knots gusting 9

Air temperature 17.8° C
Dewpoint 12.4° C

Last reported at 2017-Feb-27 13:45 UTC.
Time now 2017-Feb-27 14:05 UTC

Location: N 38°48' E 000°11'.
View on Google Maps.

See reports from other nearby stations

  
Tides and Currents Weather Stations Pressure Air Temp Water Temp Dewpoint Dewpoint Depression Visibility Wind Speed Wind Dir Waves Ship Positions
date/time (UTC)wind fromknots sea level pressurealtimeterstation pressurevisibilityair tempwater tempwave heightnotes
2017-Feb-27 13:45 130 4 gusting 9 17.8
2017-Feb-27 13:30 132 4 gusting 6 18.3
2017-Feb-27 13:00 130 3 gusting 6 17.8
2017-Feb-27 12:30 135 3 gusting 5 17.2
2017-Feb-27 12:15 135 4 gusting 6 17.2
2017-Feb-27 11:45 132 4 gusting 7 16.7
2017-Feb-27 11:15 145 2 gusting 6 16.7
2017-Feb-27 11:00 114 3 gusting 5 16.1
2017-Feb-27 10:30 188 3 gusting 6 16.1
2017-Feb-27 10:15 175 4 gusting 5 15.6
2017-Feb-27 09:30 309 0 gusting 1 15.0
2017-Feb-27 09:00 251 4 gusting 5 13.9
2017-Feb-27 08:45 255 3 gusting 4 13.3
2017-Feb-27 08:30 257 1 gusting 4 13.3
2017-Feb-27 07:45 250 1 gusting 3 12.8
2017-Feb-27 07:30 301 1 gusting 3 12.2
2017-Feb-27 07:15 270 1 gusting 1 12.2
2017-Feb-27 07:00 280 1 gusting 3 12.2
2017-Feb-27 06:30 11.7
2017-Feb-27 06:15 12.2
2017-Feb-27 06:00 12.2
2017-Feb-27 05:30 259 3 gusting 5 12.2
2017-Feb-27 04:30 258 3 gusting 5 12.2
2017-Feb-27 04:15 272 4 gusting 5 12.2
2017-Feb-27 03:45 289 2 gusting 5 12.2
2017-Feb-27 03:30 287 2 gusting 4 12.2
2017-Feb-27 03:15 274 3 gusting 6 12.2
2017-Feb-27 02:45 279 2 gusting 3 12.2
2017-Feb-27 01:30 241 0 gusting 2 11.7
2017-Feb-27 01:15 12.8
2017-Feb-27 01:00 13.3
2017-Feb-27 00:45 12.8
2017-Feb-27 00:15 269 0 gusting 3 13.3
2017-Feb-26 23:45 261 1 gusting 3 13.3
2017-Feb-26 23:30 258 1 gusting 2 13.3
2017-Feb-26 23:15 271 0 gusting 3 13.3
2017-Feb-26 23:00 270 13.3
2017-Feb-26 22:15 255 1 gusting 4 13.9
2017-Feb-26 21:30 257 3 gusting 4 13.9
2017-Feb-26 21:15 247 1 gusting 4 13.9
2017-Feb-26 21:00 243 2 gusting 4 13.9
2017-Feb-26 20:45 244 3 gusting 6 13.9
2017-Feb-26 20:30 249 5 gusting 7 13.9
2017-Feb-26 19:45 245 4 gusting 6 14.4
2017-Feb-26 19:15 236 4 gusting 6 14.4
2017-Feb-26 19:00 247 5 gusting 9 14.4
2017-Feb-26 18:15 246 6 gusting 10 14.4
2017-Feb-26 17:30 225 5 gusting 11 15.0
2017-Feb-26 17:15 211 6 gusting 10 15.0
2017-Feb-26 17:00 217 7 gusting 11 15.0
2017-Feb-26 16:15 204 7 gusting 12 15.6
2017-Feb-26 15:30 219 11 gusting 15 15.6
2017-Feb-26 15:00 203 9 gusting 14 16.1
2017-Feb-26 14:45 203 9 gusting 17 16.1
2017-Feb-26 13:45 234 8 gusting 12 16.7
2017-Feb-26 13:30 234 8 gusting 10 16.7
2017-Feb-26 12:15 222 7 gusting 11 16.7
2017-Feb-26 12:00 203 6 gusting 14 16.7
2017-Feb-26 11:30 205 3 gusting 10 16.7
2017-Feb-26 11:15 059 1 gusting 3 15.6
2017-Feb-26 11:00 056 2 gusting 4 15.6
2017-Feb-26 10:30 172 1 gusting 6 16.1
2017-Feb-26 10:15 103 1 gusting 3 15.6
2017-Feb-26 10:00 070 1 gusting 3 15.0
2017-Feb-26 09:45 085 0 gusting 3 15.0
2017-Feb-26 09:30 229 0 gusting 1 14.4
2017-Feb-26 08:45 12.8
2017-Feb-26 08:15 242 1 gusting 2 11.1
2017-Feb-26 07:45 236 2 gusting 3 10.0
2017-Feb-26 07:15 254 1 gusting 2 9.4
2017-Feb-26 07:00 253 1 gusting 0 9.4
2017-Feb-26 05:45 243 1 gusting 1 8.9
2017-Feb-26 05:30 242 1 gusting 2 8.9
2017-Feb-26 05:15 242 0 gusting 0 8.9
2017-Feb-26 04:45 244 0 gusting 1 9.4
2017-Feb-26 04:30 249 9.4
2017-Feb-26 04:00 243 0 gusting 2 8.9
2017-Feb-26 03:00 8.9
2017-Feb-26 01:45 244 0 gusting 3 9.4
2017-Feb-26 01:30 10.6
2017-Feb-26 01:15 10.0
2017-Feb-26 01:00 10.6
2017-Feb-26 00:45 10.6
2017-Feb-26 00:00 289 2 gusting 2 12.2
2017-Feb-25 23:15 277 1 gusting 2 12.2
2017-Feb-25 23:00 278 1 gusting 3 12.2
2017-Feb-25 22:45 281 12.8
2017-Feb-25 22:00 12.8
2017-Feb-25 21:45 285 0 gusting 1 12.8
2017-Feb-25 21:15 12.8
2017-Feb-25 20:45 267 12.8
2017-Feb-25 20:15 267 0 gusting 1 12.8
2017-Feb-25 19:45 262 1 gusting 3 12.8
2017-Feb-25 19:00 242 2 gusting 3 12.8
2017-Feb-25 18:45 241 2 gusting 3 13.3
2017-Feb-25 18:30 242 2 gusting 4 13.3
2017-Feb-25 17:30 234 4 gusting 7 14.4
2017-Feb-25 16:45 194 5 gusting 8 15.0
2017-Feb-25 16:00 197 5 gusting 9 14.4
2017-Feb-25 15:45 174 5 gusting 7 15.0
2017-Feb-25 15:15 147 5 gusting 9 15.0
2017-Feb-25 15:00 151 4 gusting 6 15.6
2017-Feb-25 14:45 186 4 gusting 6 15.0
2017-Feb-25 14:30 188 5 gusting 9 15.0
2017-Feb-25 14:00 173 6 gusting 8 15.0